Time;durP1;ratioP1;P1;durP2;ratioP2;P2;SDS_P1;SDS_P2;PMS_P1;PMS_P2;Temp;Humidity;BMP_temperature;BMP_pressure;BME280_temperature;BME280_humidity;BME280_pressure;Samples;Min_cycle;Max_cycle;Signal;HPM_P1;HPM_P2
2021/08/31 00:00:35;;;;;;;2.40;1.40;;;;;;;19.96;60.41;102296.19;5014713;28;20394;-68
2021/08/31 00:03:02;;;;;;;2.10;1.33;;;;;;;19.98;59.90;102291.44;5033727;28;20021;-68
2021/08/31 00:05:27;;;;;;;2.58;1.42;;;;;;;19.94;60.69;102295.47;5035231;28;20017;-68
2021/08/31 00:07:59;;;;;;;2.58;1.48;;;;;;;19.99;59.08;102290.47;5034553;28;20052;-67
2021/08/31 00:10:24;;;;;;;4.40;1.70;;;;;;;19.92;59.33;102294.78;5034537;28;20022;-68
2021/08/31 00:12:49;;;;;;;2.25;1.30;;;;;;;19.93;59.95;102287.44;5035355;28;20037;-68
2021/08/31 00:15:15;;;;;;;4.30;2.00;;;;;;;19.98;59.13;102302.34;5041809;28;20425;-68
2021/08/31 00:17:56;;;;;;;2.05;1.40;;;;;;;19.94;58.96;102298.22;5036289;28;20025;-66
2021/08/31 00:20:21;;;;;;;4.75;1.35;;;;;;;19.92;59.57;102297.50;5033501;28;20025;-68
2021/08/31 00:22:47;;;;;;;3.75;1.23;;;;;;;19.92;59.34;102302.97;5034052;28;20104;-68
2021/08/31 00:25:12;;;;;;;2.78;1.65;;;;;;;19.86;59.63;102306.28;5033869;28;20477;-68
2021/08/31 00:27:37;;;;;;;3.97;1.70;;;;;;;19.88;59.42;102308.88;5034187;28;20034;-69
2021/08/31 00:30:06;;;;;;;2.95;1.60;;;;;;;19.87;59.30;102302.56;5033988;28;20028;-69
2021/08/31 00:32:33;;;;;;;2.65;1.55;;;;;;;19.92;59.81;102313.03;5036539;28;20377;-68
2021/08/31 00:35:00;;;;;;;2.40;1.55;;;;;;;19.90;59.78;102313.16;5036561;28;20022;-68
2021/08/31 00:37:26;;;;;;;2.80;1.38;;;;;;;19.88;58.59;102317.91;5034020;28;20068;-68
2021/08/31 00:39:52;;;;;;;2.10;1.60;;;;;;;19.84;59.79;102319.22;5033673;28;20021;-68
2021/08/31 00:42:32;;;;;;;1.77;1.30;;;;;;;19.84;59.17;102311.03;5035116;28;20109;-68
2021/08/31 00:44:59;;;;;;;4.20;1.90;;;;;;;19.88;59.42;102317.91;5034477;28;20381;-69
2021/08/31 00:47:26;;;;;;;1.95;1.40;;;;;;;19.82;59.43;102313.91;5040736;28;20005;-68
2021/08/31 00:49:51;;;;;;;1.50;1.27;;;;;;;19.83;59.90;102317.50;5033723;28;20520;-68
2021/08/31 00:52:17;;;;;;;2.35;1.50;;;;;;;19.83;59.59;102314.78;5029253;28;20030;-68
2021/08/31 00:54:42;;;;;;;2.53;1.60;;;;;;;19.83;60.26;102321.09;5013830;28;20497;-68
2021/08/31 00:57:07;;;;;;;2.38;1.38;;;;;;;19.80;59.62;102324.09;5013472;28;20026;-70
2021/08/31 00:59:33;;;;;;;3.65;1.45;;;;;;;19.74;59.12;102319.22;5014972;28;20026;-68
2021/08/31 01:01:59;;;;;;;2.40;1.23;;;;;;;19.79;59.68;102313.31;5019418;28;20495;-68
2021/08/31 01:04:27;;;;;;;2.33;1.20;;;;;;;19.79;59.45;102318.78;5013907;28;20030;-68
2021/08/31 01:06:53;;;;;;;2.22;1.08;;;;;;;19.81;59.26;102317.63;5013792;28;20021;-68
2021/08/31 01:09:28;;;;;;;2.67;2.08;;;;;;;19.75;59.44;102328.25;5013682;28;20050;-67
2021/08/31 01:11:55;;;;;;;2.47;1.48;;;;;;;19.78;60.05;102336.16;5013572;28;20064;-68
2021/08/31 01:14:26;;;;;;;2.10;1.35;;;;;;;19.79;59.35;102338.75;5016073;28;20025;-69
2021/08/31 01:16:52;;;;;;;2.15;1.35;;;;;;;19.78;58.97;102341.63;5013638;28;20091;-68
2021/08/31 01:19:22;;;;;;;3.85;1.85;;;;;;;19.75;59.20;102344.63;5013806;28;20136;-68
2021/08/31 01:21:48;;;;;;;3.25;1.80;;;;;;;19.73;60.72;102335.75;5013684;28;20022;-68
2021/08/31 01:24:13;;;;;;;2.05;1.52;;;;;;;19.78;60.25;102334.28;5013476;28;20033;-69
2021/08/31 01:26:42;;;;;;;2.65;1.30;;;;;;;19.69;59.07;102335.19;5015233;28;20034;-68
2021/08/31 01:29:09;;;;;;;2.92;1.35;;;;;;;19.71;59.87;102337.75;5022431;28;20476;-68
2021/08/31 01:31:34;;;;;;;3.47;1.70;;;;;;;19.72;58.88;102334.88;5016703;28;20021;-68
2021/08/31 01:34:00;;;;;;;2.80;1.20;;;;;;;19.68;59.54;102333.44;5017466;28;20142;-68
2021/08/31 01:36:26;;;;;;;2.60;1.42;;;;;;;19.72;60.04;102331.28;5017529;28;20030;-68
2021/08/31 01:38:56;;;;;;;2.55;1.30;;;;;;;19.74;59.93;102327.41;5017350;28;20026;-68
2021/08/31 01:41:24;;;;;;;3.72;1.30;;;;;;;19.70;59.93;102316.94;5020896;28;20034;-69
2021/08/31 01:43:49;;;;;;;2.83;1.15;;;;;;;19.70;59.57;102320.53;5017304;28;20056;-68
2021/08/31 01:46:15;;;;;;;3.80;1.60;;;;;;;19.65;60.90;102319.22;5008268;28;20669;-68
2021/08/31 01:48:42;;;;;;;2.33;1.23;;;;;;;19.64;59.76;102320.22;5003706;28;20088;-68
2021/08/31 01:51:08;;;;;;;2.42;1.67;;;;;;;19.70;59.18;102325.13;5028279;28;20409;-68
2021/08/31 01:56:59;;;;;;;3.40;1.38;;;;;;;19.67;59.37;102319.97;5044256;28;20055;-67
2021/08/31 01:59:24;;;;;;;1.15;0.98;;;;;;;19.70;59.09;102319.66;5012531;28;20049;-68
2021/08/31 02:01:49;;;;;;;2.22;1.60;;;;;;;19.69;59.88;102318.81;4996977;28;20026;-67
2021/08/31 02:04:14;;;;;;;2.05;1.35;;;;;;;19.67;59.84;102322.69;4997341;28;20471;-67
2021/08/31 02:06:42;;;;;;;2.88;1.42;;;;;;;19.64;60.62;102320.22;4997220;28;20034;-70
2021/08/31 02:09:07;;;;;;;3.25;1.45;;;;;;;19.61;59.59;102325.97;4995787;28;20513;-68
2021/08/31 02:11:52;;;;;;;2.75;1.27;;;;;;;19.62;60.75;102317.63;4999735;28;20038;-67
2021/08/31 02:14:18;;;;;;;;;;;;;;;19.60;60.39;102324.25;4997682;28;20027;-69
2021/08/31 02:16:43;;;;;;;1.95;1.30;;;;;;;19.62;60.22;102322.22;4997076;28;20342;-67
2021/08/31 02:19:09;;;;;;;4.40;1.42;;;;;;;19.66;59.54;102320.97;4996914;28;20030;-68
2021/08/31 02:21:34;;;;;;;3.92;1.45;;;;;;;19.59;60.28;102322.53;4997183;28;20034;-68
2021/08/31 02:24:02;;;;;;;1.40;1.10;;;;;;;19.59;60.62;102322.53;5004133;28;20037;-68
2021/08/31 02:26:30;;;;;;;2.78;1.40;;;;;;;19.64;60.23;102325.69;4997111;28;20022;-68
2021/08/31 02:28:56;;;;;;;2.42;1.40;;;;;;;19.62;59.92;102327.69;4997455;28;20069;-67
2021/08/31 02:31:21;;;;;;;3.00;1.52;;;;;;;19.66;61.37;102323.69;4996953;28;20022;-67
2021/08/31 02:33:47;;;;;;;1.85;1.17;;;;;;;19.62;59.47;102324.97;4996916;28;20026;-68
2021/08/31 02:36:12;;;;;;;2.63;1.25;;;;;;;19.56;59.82;102317.38;4996700;28;20490;-67
2021/08/31 02:38:37;;;;;;;3.08;1.67;;;;;;;19.63;60.80;102318.50;4995394;28;20033;-67
2021/08/31 02:41:03;;;;;;;5.72;1.20;;;;;;;19.55;60.59;102321.09;4996590;28;20018;-67
2021/08/31 02:43:28;;;;;;;3.63;1.38;;;;;;;19.53;59.60;102319.34;4995739;28;20027;-68
2021/08/31 02:45:53;;;;;;;2.28;1.48;;;;;;;19.57;59.85;102313.63;4991917;28;20025;-68
2021/08/31 02:48:19;;;;;;;1.95;1.40;;;;;;;19.60;59.89;102321.53;4977035;28;20031;-68
2021/08/31 02:50:44;;;;;;;2.33;1.23;;;;;;;19.56;59.55;102315.50;4978262;28;20074;-67
2021/08/31 02:53:10;;;;;;;2.13;1.60;;;;;;;19.53;60.22;102316.63;4976773;28;20034;-67
2021/08/31 02:55:36;;;;;;;2.88;1.05;;;;;;;19.58;59.96;102320.81;4977185;28;20521;-68
2021/08/31 02:58:01;;;;;;;2.03;1.30;;;;;;;19.55;59.78;102321.09;4993571;28;20049;-68
2021/08/31 03:00:32;;;;;;;2.00;1.00;;;;;;;19.55;59.37;102321.09;5018327;28;20026;-64
2021/08/31 03:02:58;;;;;;;1.85;1.10;;;;;;;19.52;60.77;102306.72;5015674;28;20022;-68
2021/08/31 03:05:23;;;;;;;1.50;1.08;;;;;;;19.51;59.74;102305.00;5015909;28;20022;-68
2021/08/31 03:07:49;;;;;;;2.35;1.20;;;;;;;19.56;60.44;102311.91;5015888;28;20529;-67
2021/08/31 03:10:14;;;;;;;2.90;1.48;;;;;;;19.50;60.44;102319.63;5015689;28;20032;-68
2021/08/31 03:12:40;;;;;;;4.45;1.65;;;;;;;19.48;59.82;102294.38;5015894;28;20029;-68
2021/08/31 03:15:06;;;;;;;2.67;1.13;;;;;;;19.48;60.36;102305.28;5015218;28;20048;-68
2021/08/31 03:17:31;;;;;;;1.85;1.10;;;;;;;19.47;61.06;102309.00;5017738;28;20471;-67
2021/08/31 03:19:57;;;;;;;3.08;1.27;;;;;;;19.46;60.48;102290.91;5018374;28;20025;-67
2021/08/31 03:22:22;;;;;;;2.72;1.00;;;;;;;19.47;59.47;102284.44;5015670;28;20123;-68
2021/08/31 03:24:47;;;;;;;3.22;1.20;;;;;;;19.47;60.26;102276.25;5015179;28;20470;-67
2021/08/31 03:27:13;;;;;;;2.20;0.90;;;;;;;19.44;60.76;102279.28;5015377;28;20112;-68
2021/08/31 03:29:38;;;;;;;1.95;1.13;;;;;;;19.47;61.02;102278.13;5015061;28;20032;-68
2021/08/31 03:32:04;;;;;;;1.33;0.93;;;;;;;19.45;61.07;102266.50;5003139;28;20033;-68
2021/08/31 03:34:29;;;;;;;1.23;1.00;;;;;;;19.41;60.71;102265.06;5015080;28;20104;-68
2021/08/31 03:36:55;;;;;;;1.17;0.90;;;;;;;19.42;60.50;102262.19;5015357;28;20029;-67
2021/08/31 03:39:20;;;;;;;1.55;0.88;;;;;;;19.45;60.26;102255.59;5015009;28;20030;-67
2021/08/31 03:41:46;;;;;;;1.20;0.90;;;;;;;19.43;60.53;102263.06;5014768;28;20030;-68
2021/08/31 03:44:11;;;;;;;1.70;0.73;;;;;;;19.43;60.42;102258.47;5014998;28;20521;-68
2021/08/31 03:46:37;;;;;;;2.90;1.13;;;;;;;19.43;61.09;102258.47;5043817;28;20029;-68
2021/08/31 03:49:04;;;;;;;2.03;0.90;;;;;;;19.40;60.36;102253.31;5037840;28;20545;-68
2021/08/31 03:51:29;;;;;;;1.05;0.73;;;;;;;19.39;60.92;102248.00;5034583;28;20413;-70
2021/08/31 03:53:55;;;;;;;2.40;0.95;;;;;;;19.40;61.50;102247.84;5031671;28;20025;-69
2021/08/31 03:56:20;;;;;;;2.25;0.57;;;;;;;19.41;60.96;102249.56;5016975;28;20022;-68
2021/08/31 03:58:45;;;;;;;2.95;0.82;;;;;;;19.40;60.78;102247.84;5014622;28;20050;-67
2021/08/31 04:01:10;;;;;;;1.08;0.60;;;;;;;19.40;60.95;102247.84;5014745;28;20041;-64
2021/08/31 04:03:36;;;;;;;1.77;0.82;;;;;;;20.17;58.33;102255.06;5016660;28;20467;-68
2021/08/31 04:06:01;;;;;;;1.67;0.45;;;;;;;20.48;58.55;102241.13;5015120;28;20049;-67
2021/08/31 04:09:00;;;;;;;3.25;0.75;;;;;;;20.73;57.39;102232.22;5039693;28;20014;-67
2021/08/31 04:11:25;;;;;;;0.63;0.32;;;;;;;20.87;58.21;102239.03;4934882;29;20132;-68
2021/08/31 04:13:50;;;;;;;1.83;0.57;;;;;;;20.97;58.22;102231.59;4934906;29;20115;-67
2021/08/31 04:16:16;;;;;;;1.48;0.88;;;;;;;21.08;57.25;102225.06;4935287;29;20498;-65
2021/08/31 04:18:41;;;;;;;2.72;0.30;;;;;;;21.17;57.52;102226.88;4940391;29;20040;-67
2021/08/31 04:21:06;;;;;;;0.98;0.55;;;;;;;21.24;57.70;102228.84;4934761;29;20044;-68
2021/08/31 04:23:32;;;;;;;1.75;0.40;;;;;;;21.34;57.71;102236.13;4934738;29;20032;-67
2021/08/31 04:25:57;;;;;;;1.85;0.45;;;;;;;21.39;58.64;102233.75;4934521;29;20032;-67
2021/08/31 04:28:23;;;;;;;1.10;0.70;;;;;;;21.41;58.18;102235.31;4934417;29;20047;-67
2021/08/31 04:30:48;;;;;;;0.98;0.60;;;;;;;21.45;58.83;102233.09;4934686;29;20032;-67
2021/08/31 04:33:14;;;;;;;0.90;0.50;;;;;;;21.48;58.90;102232.78;4934353;29;20188;-67
2021/08/31 04:35:40;;;;;;;1.15;0.47;;;;;;;21.51;59.38;102227.03;4934527;29;20028;-67
2021/08/31 04:38:06;;;;;;;0.65;0.50;;;;;;;21.56;59.46;102236.47;4941079;29;20121;-66
2021/08/31 04:40:32;;;;;;;0.88;0.43;;;;;;;21.56;59.73;102241.06;4939413;29;20099;-67
2021/08/31 04:42:57;;;;;;;1.02;0.57;;;;;;;21.61;58.96;102235.97;4962445;28;20026;-68
2021/08/31 04:45:23;;;;;;;2.03;0.77;;;;;;;21.59;60.18;102238.88;4972603;28;20031;-67
2021/08/31 04:47:48;;;;;;;1.88;0.50;;;;;;;21.63;59.64;102239.41;5007171;28;20049;-67
2021/08/31 04:50:13;;;;;;;1.02;0.40;;;;;;;21.66;59.90;102230.88;5014182;28;20072;-67
2021/08/31 04:52:39;;;;;;;0.60;0.40;;;;;;;21.67;59.14;102229.88;5015461;28;20025;-67
2021/08/31 04:55:05;;;;;;;1.13;0.73;;;;;;;21.70;60.02;102237.78;5013818;28;20056;-67
2021/08/31 04:57:30;;;;;;;1.35;0.38;;;;;;;21.73;59.98;102225.63;5013474;28;20448;-66
2021/08/31 04:59:55;;;;;;;1.17;0.40;;;;;;;21.75;60.13;102221.72;5013665;28;20112;-67
2021/08/31 05:02:21;;;;;;;2.55;0.50;;;;;;;21.77;60.88;102205.13;5017219;28;20033;-67
2021/08/31 05:05:22;;;;;;;0.77;0.32;;;;;;;21.82;60.97;102208.22;5037197;28;20045;-68
2021/08/31 05:07:48;;;;;;;0.75;0.47;;;;;;;21.80;60.48;102211.13;5002644;28;20640;-66
2021/08/31 05:10:13;;;;;;;1.23;0.70;;;;;;;21.84;61.22;102206.22;5013470;28;20025;-67
2021/08/31 05:12:39;;;;;;;1.00;0.30;;;;;;;21.83;60.36;102210.81;5013521;28;20026;-67
2021/08/31 05:15:05;;;;;;;1.13;0.43;;;;;;;21.85;61.11;102219.75;5013282;28;20474;-67
2021/08/31 05:17:30;;;;;;;1.42;0.40;;;;;;;21.85;61.40;102214.25;4995952;28;20037;-67
2021/08/31 05:19:57;;;;;;;1.38;0.50;;;;;;;21.92;61.61;102214.47;5022394;28;20029;-67
2021/08/31 05:22:41;;;;;;;1.65;0.65;;;;;;;21.86;60.92;102213.25;5034747;28;20378;-66
2021/08/31 05:25:07;;;;;;;0.63;0.40;;;;;;;21.85;60.24;102206.06;5033112;28;20466;-67
2021/08/31 05:27:32;;;;;;;1.15;0.30;;;;;;;21.80;60.92;102200.19;5033038;28;20070;-67
2021/08/31 05:29:57;;;;;;;1.25;0.50;;;;;;;21.79;60.49;102198.47;5033220;28;20025;-67
2021/08/31 05:32:23;;;;;;;0.95;0.32;;;;;;;21.81;60.16;102196.41;5036991;28;20036;-67
2021/08/31 05:34:49;;;;;;;1.05;0.55;;;;;;;21.77;59.82;102189.56;5040427;28;20477;-67
2021/08/31 05:37:15;;;;;;;2.22;0.50;;;;;;;21.72;60.16;102191.94;5035981;28;20029;-67
2021/08/31 05:39:40;;;;;;;1.92;0.47;;;;;;;21.77;61.24;102184.09;5032800;28;20104;-67
2021/08/31 05:42:08;;;;;;;2.10;0.65;;;;;;;21.75;60.02;102191.59;5032808;28;20029;-67
2021/08/31 05:44:35;;;;;;;1.23;0.52;;;;;;;21.76;60.94;102193.31;5032787;28;20352;-67
2021/08/31 05:47:01;;;;;;;1.65;0.43;;;;;;;21.76;60.33;102192.47;5015340;28;20029;-67
2021/08/31 05:49:29;;;;;;;1.40;0.40;;;;;;;21.77;60.84;102183.22;5012911;28;20088;-67
2021/08/31 05:51:55;;;;;;;1.80;0.57;;;;;;;21.72;60.87;102180.97;5014019;28;20356;-67
2021/08/31 05:54:22;;;;;;;0.82;0.25;;;;;;;21.73;60.54;102182.69;5012912;28;20033;-66
2021/08/31 05:56:48;;;;;;;1.23;0.40;;;;;;;21.75;60.00;102180.66;5013021;28;20022;-67
2021/08/31 05:59:14;;;;;;;1.80;0.57;;;;;;;21.74;60.39;102187.16;5015094;28;20041;-67
2021/08/31 06:01:40;;;;;;;2.38;0.47;;;;;;;21.74;61.14;102178.94;5012908;28;20064;-67
2021/08/31 06:04:05;;;;;;;2.25;0.60;;;;;;;21.76;60.70;102174.16;5013020;28;20029;-67
2021/08/31 06:06:31;;;;;;;1.85;0.50;;;;;;;21.77;61.56;102169.53;5015249;28;20112;-67
2021/08/31 06:08:56;;;;;;;1.73;0.60;;;;;;;21.76;60.63;102179.63;5012765;28;20029;-67
2021/08/31 06:11:22;;;;;;;2.28;0.40;;;;;;;21.73;60.69;102152.59;5032367;28;20405;-67
2021/08/31 06:13:48;;;;;;;1.73;0.35;;;;;;;21.72;60.23;102164.56;5014756;28;20554;-67
2021/08/31 06:16:13;;;;;;;1.73;0.65;;;;;;;21.78;61.16;102174.00;5019902;28;20113;-67
2021/08/31 06:18:38;;;;;;;1.20;0.50;;;;;;;21.76;60.57;102160.47;5016249;28;20018;-66
2021/08/31 06:21:04;;;;;;;2.70;0.75;;;;;;;21.79;59.92;102168.34;5036520;28;20347;-67
2021/08/31 06:23:29;;;;;;;1.80;0.50;;;;;;;21.78;59.96;102174.00;5036143;28;20512;-67
2021/08/31 06:25:55;;;;;;;1.10;0.32;;;;;;;21.83;61.66;102177.94;5010756;28;20040;-68
2021/08/31 06:28:21;;;;;;;1.10;0.40;;;;;;;21.84;61.17;102176.09;5018573;28;20018;-65
2021/08/31 06:30:46;;;;;;;0.63;0.30;;;;;;;21.79;59.89;102187.50;5042904;28;20029;-66
2021/08/31 06:33:24;;;;;;;1.20;0.38;;;;;;;21.79;61.01;102190.25;5036571;28;20040;-63
2021/08/31 06:35:50;;;;;;;2.35;1.20;;;;;;;21.71;61.72;102183.88;5036928;28;20057;-68
2021/08/31 06:38:15;;;;;;;1.42;0.88;;;;;;;21.99;60.71;102181.78;5035580;28;20489;-65
2021/08/31 06:40:40;;;;;;;2.28;0.55;;;;;;;21.99;60.99;102182.66;5034965;28;20025;-65
2021/08/31 06:43:06;;;;;;;2.08;0.57;;;;;;;21.96;59.38;102184.88;5035065;28;20033;-66
2021/08/31 06:45:31;;;;;;;2.30;0.60;;;;;;;21.90;59.38;102176.28;5029904;28;20129;-65
2021/08/31 06:47:56;;;;;;;0.50;0.30;;;;;;;22.05;60.10;102183.94;5033947;28;20406;-65
2021/08/31 06:50:22;;;;;;;0.50;0.30;;;;;;;21.97;59.69;102186.59;5036911;28;20437;-65
2021/08/31 06:52:48;;;;;;;0.63;0.30;;;;;;;21.98;59.37;102169.13;5035254;28;20037;-66
2021/08/31 06:55:14;;;;;;;0.45;0.25;;;;;;;22.01;59.51;102185.25;5023314;28;20025;-64
2021/08/31 06:57:39;;;;;;;0.30;0.30;;;;;;;21.93;59.93;102178.69;5035340;28;20048;-65
2021/08/31 07:00:07;;;;;;;2.00;0.30;;;;;;;21.93;59.53;102178.69;5035243;28;20037;-65
2021/08/31 07:02:32;;;;;;;0.43;0.20;;;;;;;21.85;59.19;102180.56;5035133;28;20478;-66
2021/08/31 07:04:58;;;;;;;1.02;0.50;;;;;;;22.08;59.56;102186.34;5032212;28;20029;-65
2021/08/31 07:07:23;;;;;;;3.20;0.20;;;;;;;21.97;59.57;102181.97;5015564;28;20534;-65
2021/08/31 07:09:48;;;;;;;0.45;0.30;;;;;;;22.11;58.79;102186.88;5015049;28;20653;-65
2021/08/31 07:12:14;;;;;;;0.80;0.43;;;;;;;21.97;58.13;102194.81;5026327;28;20367;-66
2021/08/31 07:14:39;;;;;;;0.30;0.20;;;;;;;21.98;58.97;102186.41;5024324;28;20022;-65
2021/08/31 07:17:05;;;;;;;0.88;0.30;;;;;;;21.99;61.42;102192.75;5020968;28;20100;-65
2021/08/31 07:19:30;;;;;;;0.75;0.30;;;;;;;21.98;59.65;102185.56;5035013;28;20023;-65
2021/08/31 07:21:56;;;;;;;0.77;0.30;;;;;;;22.01;58.45;102179.78;5038366;28;20025;-67
2021/08/31 07:24:22;;;;;;;1.42;0.43;;;;;;;22.09;59.36;102171.63;5017052;28;20124;-65
2021/08/31 07:26:48;;;;;;;1.67;0.40;;;;;;;22.07;59.58;102176.41;5034859;28;20076;-64
2021/08/31 07:29:13;;;;;;;1.05;0.35;;;;;;;22.07;60.46;102181.88;5033952;28;20497;-66
2021/08/31 07:31:39;;;;;;;1.27;0.20;;;;;;;22.09;60.01;102188.06;5029789;28;20026;-66
2021/08/31 07:34:04;;;;;;;2.53;0.38;;;;;;;22.06;59.43;102177.44;5014894;28;20029;-65
2021/08/31 07:36:30;;;;;;;1.13;0.40;;;;;;;22.06;60.54;102178.28;5018421;28;20061;-65
2021/08/31 07:38:56;;;;;;;1.20;0.30;;;;;;;22.08;60.38;102175.38;5020544;28;20116;-65
2021/08/31 07:41:21;;;;;;;0.93;0.38;;;;;;;22.05;60.12;102175.72;5027846;28;20030;-66
2021/08/31 07:43:48;;;;;;;1.23;0.60;;;;;;;22.00;59.25;102178.91;5016757;28;20037;-65
2021/08/31 07:46:14;;;;;;;1.27;0.40;;;;;;;21.99;60.58;102174.44;5010340;28;20029;-63
2021/08/31 07:48:40;;;;;;;2.38;0.60;;;;;;;22.02;60.36;102176.03;5039182;28;20485;-65
2021/08/31 07:51:05;;;;;;;0.95;0.45;;;;;;;21.99;59.72;102184.53;5026781;28;20041;-66
2021/08/31 07:53:31;;;;;;;1.45;0.20;;;;;;;21.99;60.14;102181.78;5016722;28;20014;-65
2021/08/31 07:55:56;;;;;;;1.73;0.30;;;;;;;21.99;59.78;102176.31;4996793;28;20034;-65
2021/08/31 07:58:21;;;;;;;2.00;0.32;;;;;;;21.99;61.41;102177.19;5016005;28;20041;-65
2021/08/31 08:00:47;;;;;;;1.33;0.50;;;;;;;22.02;60.80;102170.53;5032844;28;20375;-65
2021/08/31 08:03:12;;;;;;;0.30;0.30;;;;;;;21.99;60.68;102182.66;5033852;28;20030;-66
2021/08/31 08:05:37;;;;;;;1.15;0.47;;;;;;;22.02;61.07;102189.72;5033540;28;20508;-66
2021/08/31 08:08:03;;;;;;;0.57;0.35;;;;;;;21.99;60.47;102181.78;5015690;28;20028;-65
2021/08/31 08:10:28;;;;;;;1.67;0.50;;;;;;;21.99;60.70;102176.31;5033050;28;20037;-65
2021/08/31 08:12:53;;;;;;;1.58;0.55;;;;;;;22.02;61.21;102176.03;5034625;28;20410;-65
2021/08/31 08:15:21;;;;;;;1.58;0.32;;;;;;;22.04;60.76;102173.97;5033442;28;20020;-64
2021/08/31 08:18:21;;;;;;;2.65;0.40;;;;;;;21.98;61.96;102175.47;5035023;28;20026;-62
2021/08/31 08:20:46;;;;;;;2.08;0.40;;;;;;;22.01;60.76;102179.78;5030504;28;20550;-65
2021/08/31 08:23:12;;;;;;;1.77;0.50;;;;;;;21.97;60.01;102178.38;5013558;28;20104;-64
2021/08/31 08:25:38;;;;;;;0.88;0.40;;;;;;;21.96;60.77;102176.66;5024165;28;20076;-64
2021/08/31 08:28:04;;;;;;;2.35;0.75;;;;;;;21.98;61.07;102175.47;5018806;28;20029;-63
2021/08/31 08:30:29;;;;;;;2.50;0.45;;;;;;;21.96;60.63;102174.78;5014037;28;20029;-65
2021/08/31 08:32:55;;;;;;;1.40;0.50;;;;;;;21.99;61.62;102176.31;5013509;28;20026;-64
2021/08/31 08:35:21;;;;;;;2.17;0.30;;;;;;;21.98;60.88;102166.41;5013836;28;20022;-64
2021/08/31 08:37:47;;;;;;;1.38;0.47;;;;;;;22.01;60.73;102166.09;5020996;28;20072;-65
2021/08/31 08:40:13;;;;;;;1.23;0.30;;;;;;;22.01;61.30;102166.09;5015942;28;20494;-65
2021/08/31 08:42:39;;;;;;;0.68;0.25;;;;;;;22.00;59.92;102161.59;5024227;28;20048;-61
2021/08/31 08:45:08;;;;;;;0.98;0.38;;;;;;;21.99;60.18;102159.88;5016191;28;20018;-64
2021/08/31 08:47:34;;;;;;;1.65;0.40;;;;;;;22.03;60.52;102164.03;5034287;28;20045;-64
2021/08/31 08:50:01;;;;;;;0.70;0.40;;;;;;;22.01;60.66;102171.56;5032903;28;20096;-64
2021/08/31 08:52:27;;;;;;;0.80;0.32;;;;;;;22.00;61.31;102167.94;5033120;28;20080;-64
2021/08/31 08:54:52;;;;;;;1.25;0.43;;;;;;;22.03;60.88;102169.53;5033146;28;20017;-64
2021/08/31 08:57:18;;;;;;;0.75;0.40;;;;;;;22.02;60.37;102176.03;5015556;28;20072;-64
2021/08/31 08:59:47;;;;;;;2.65;0.38;;;;;;;22.00;61.09;102167.09;5033724;28;20577;-64
2021/08/31 09:02:31;;;;;;;0.75;0.25;;;;;;;21.98;60.27;102163.66;5032722;28;20033;-63
2021/08/31 09:04:56;;;;;;;0.60;0.32;;;;;;;21.97;60.49;102167.41;5032964;28;20061;-64
2021/08/31 09:07:24;;;;;;;1.25;0.35;;;;;;;22.03;60.27;102167.63;5033385;28;20036;-64
2021/08/31 09:10:10;;;;;;;0.80;0.22;;;;;;;21.99;60.92;102166.22;5024241;28;20029;-64
2021/08/31 09:12:36;;;;;;;0.50;0.20;;;;;;;21.97;61.44;102167.41;5017744;28;20037;-64
2021/08/31 09:15:38;;;;;;;0.73;0.55;;;;;;;22.04;61.14;102157.53;5029999;28;20048;-63
2021/08/31 09:18:07;;;;;;;0.45;0.20;;;;;;;22.02;61.31;102176.03;5020961;28;20035;-64
2021/08/31 09:21:05;;;;;;;1.20;0.32;;;;;;;22.00;60.61;102158.88;5022822;28;20390;-64
2021/08/31 09:23:35;;;;;;;1.52;0.50;;;;;;;21.96;60.98;102160.22;5031432;28;20034;-64
2021/08/31 09:26:12;;;;;;;0.88;0.50;;;;;;;22.03;60.42;102153.09;5031887;28;20120;-64
2021/08/31 09:28:41;;;;;;;1.92;0.70;;;;;;;22.00;60.67;102158.88;5032370;28;20029;-64
2021/08/31 09:31:14;;;;;;;1.17;0.57;;;;;;;22.00;60.56;102158.88;5031428;28;20033;-64
2021/08/31 09:33:43;;;;;;;0.40;0.20;;;;;;;22.04;60.55;102160.28;5017326;28;20025;-64
2021/08/31 09:36:20;;;;;;;1.15;0.40;;;;;;;22.03;60.76;102166.78;5024680;28;20092;-63
2021/08/31 09:39:13;;;;;;;1.05;0.50;;;;;;;22.06;61.53;102148.16;5031611;28;20014;-61
2021/08/31 09:41:41;;;;;;;0.90;0.43;;;;;;;22.09;61.74;102155.19;5033628;28;20489;-63
2021/08/31 09:44:08;;;;;;;1.88;0.43;;;;;;;22.01;60.73;102149.66;5015349;28;20034;-64
2021/08/31 09:46:58;;;;;;;0.63;0.30;;;;;;;22.02;61.25;102141.28;5016582;28;20108;-64
2021/08/31 09:49:27;;;;;;;2.00;0.40;;;;;;;22.02;61.11;102140.41;5018440;28;20416;-64
2021/08/31 09:52:09;;;;;;;1.20;0.32;;;;;;;21.98;61.16;102136.28;5016947;28;20486;-64
2021/08/31 09:54:56;;;;;;;1.40;0.30;;;;;;;22.04;61.48;102135.63;5025189;28;20104;-65
2021/08/31 09:57:35;;;;;;;0.73;0.40;;;;;;;22.05;60.54;102131.91;5035697;28;20363;-64
2021/08/31 10:00:05;;;;;;;1.40;0.52;;;;;;;22.03;61.36;102133.91;5036249;28;20513;-63
2021/08/31 10:02:30;;;;;;;2.95;0.40;;;;;;;22.05;61.03;102134.66;5036295;28;20112;-64
2021/08/31 10:04:56;;;;;;;0.73;0.30;;;;;;;22.00;61.66;102134.22;5035998;28;20030;-64
2021/08/31 10:07:23;;;;;;;1.88;0.40;;;;;;;22.04;61.56;102130.16;5037372;28;20033;-61
2021/08/31 10:09:49;;;;;;;2.50;0.57;;;;;;;22.05;61.19;102126.44;5034748;28;20017;-64
2021/08/31 10:12:20;;;;;;;1.52;0.50;;;;;;;22.04;61.16;102119.19;5016134;28;20474;-65
2021/08/31 10:14:50;;;;;;;1.25;0.30;;;;;;;22.01;61.42;102127.75;5031826;28;20032;-64
2021/08/31 10:17:19;;;;;;;1.08;0.30;;;;;;;21.96;61.10;102121.88;5035905;28;20029;-65
2021/08/31 10:19:46;;;;;;;1.92;0.40;;;;;;;22.02;61.11;102129.47;5035966;28;20030;-64
2021/08/31 10:22:15;;;;;;;0.90;0.30;;;;;;;22.04;61.60;102124.69;5036108;28;20025;-64
2021/08/31 10:24:46;;;;;;;0.75;0.47;;;;;;;22.02;61.03;102122.09;5035022;28;20018;-62
2021/08/31 10:27:37;;;;;;;1.85;0.38;;;;;;;22.07;61.10;102114.28;5035925;28;20049;-65
2021/08/31 10:30:23;;;;;;;2.35;0.52;;;;;;;22.19;60.98;102117.59;5035638;28;20022;-64
2021/08/31 10:32:52;;;;;;;0.45;0.25;;;;;;;22.12;61.04;102122.84;5035825;28;20037;-64
2021/08/31 10:35:37;;;;;;;2.17;0.45;;;;;;;22.00;61.06;102123.28;5035743;28;20017;-65
2021/08/31 10:38:05;;;;;;;1.23;0.22;;;;;;;22.02;61.74;102132.22;5036848;28;20034;-62
2021/08/31 10:40:38;;;;;;;0.50;0.20;;;;;;;22.07;60.86;102119.75;5038237;28;20112;-63
2021/08/31 10:43:05;;;;;;;1.95;0.50;;;;;;;22.05;61.03;102115.47;5037180;28;20026;-64
2021/08/31 10:45:33;;;;;;;1.38;0.50;;;;;;;22.05;61.24;102120.94;5035495;28;20459;-63
2021/08/31 10:48:19;;;;;;;0.90;0.20;;;;;;;22.04;61.48;102119.19;5035153;28;20548;-64
2021/08/31 10:50:48;;;;;;;2.60;0.65;;;;;;;22.04;60.81;102119.19;5034995;28;20052;-63
2021/08/31 10:53:36;;;;;;;1.10;0.30;;;;;;;22.08;60.82;102109.66;5035340;28;20112;-63
2021/08/31 10:56:25;;;;;;;0.50;0.20;;;;;;;22.07;61.21;102118.91;5035208;28;20021;-63
2021/08/31 10:58:53;;;;;;;1.15;0.50;;;;;;;22.04;60.63;102119.19;5035281;28;20505;-62
2021/08/31 11:01:20;;;;;;;1.58;0.50;;;;;;;22.06;60.12;102114.44;5034857;28;20045;-62
2021/08/31 11:03:48;;;;;;;2.08;0.50;;;;;;;22.04;61.54;102124.69;5033723;28;20028;-63
2021/08/31 11:06:33;;;;;;;0.77;0.40;;;;;;;22.05;61.13;102121.81;5037155;28;20038;-61
2021/08/31 11:09:10;;;;;;;0.93;0.38;;;;;;;22.07;61.08;102107.94;5037303;28;20025;-62
2021/08/31 11:11:38;;;;;;;1.58;0.55;;;;;;;22.06;60.94;102118.03;5028184;28;20056;-63
2021/08/31 11:14:04;;;;;;;1.00;0.40;;;;;;;22.04;60.78;102119.19;5034776;28;20525;-62
2021/08/31 11:16:32;;;;;;;1.25;0.30;;;;;;;22.07;61.15;102107.94;5032845;28;20100;-61
2021/08/31 11:18:57;;;;;;;1.38;0.50;;;;;;;22.06;61.50;102101.59;5029506;28;20509;-63
2021/08/31 11:21:23;;;;;;;2.45;0.47;;;;;;;22.05;60.37;102101.78;5034269;28;20482;-63
2021/08/31 11:23:49;;;;;;;1.52;0.47;;;;;;;22.02;61.50;102107.56;5027850;28;20025;-63
2021/08/31 11:26:23;;;;;;;3.33;0.65;;;;;;;22.08;61.46;102105.03;5034055;28;20036;-62
2021/08/31 11:28:50;;;;;;;1.10;0.20;;;;;;;22.09;61.67;102103.16;5034025;28;20025;-63
2021/08/31 11:31:22;;;;;;;1.25;0.20;;;;;;;22.05;61.02;102104.50;5033862;28;20061;-64